createdAt,value
2023-12-11T09:14:30.785Z,63.37
2023-12-11T09:19:40.220Z,63.44
2023-12-11T09:29:54.546Z,62.07
2023-12-11T09:34:49.684Z,61.37
2023-12-11T09:39:45.136Z,62.03
2023-12-11T09:44:38.112Z,61.56
2023-12-11T09:49:33.844Z,61.69
2023-12-11T09:54:27.250Z,62.78
2023-12-11T09:59:20.008Z,61.64
2023-12-11T10:04:13.179Z,62.04
2023-12-11T10:09:07.927Z,61.68
2023-12-11T10:14:13.619Z,61.22
2023-12-11T10:19:10.886Z,61.98
2023-12-11T10:24:12.455Z,61.03
2023-12-11T10:29:23.305Z,61.31
2023-12-11T10:34:16.478Z,62.07
2023-12-11T10:39:12.313Z,61.56
2023-12-11T10:44:12.968Z,61.69
2023-12-11T10:49:11.764Z,61.55
2023-12-11T10:54:04.628Z,61.76
2023-12-11T10:58:59.699Z,61.77
2023-12-11T11:03:52.491Z,62.37
2023-12-11T11:09:04.286Z,62.91
2023-12-11T11:14:35.060Z,63.33
2023-12-11T11:19:31.295Z,63.23
2023-12-11T11:24:37.562Z,63.67
2023-12-11T11:29:44.426Z,63.57
2023-12-11T11:35:02.686Z,64.79
2023-12-11T11:40:05.571Z,66.76
2023-12-11T11:45:03.259Z,67.86
2023-12-11T11:50:07.365Z,70.26
2023-12-11T12:00:40.874Z,70.74
2023-12-11T12:16:01.646Z,70.73
2023-12-11T12:21:07.931Z,74.31
2023-12-11T12:26:12.681Z,76.20
2023-12-11T12:31:05.225Z,85.34
2023-12-11T12:36:00.178Z,100.00
2023-12-11T12:40:55.282Z,100.00
2023-12-11T12:45:48.803Z,100.00
2023-12-11T12:50:42.997Z,100.00
2023-12-11T12:55:44.384Z,100.00
2023-12-11T13:05:48.276Z,98.96
2023-12-11T13:21:14.686Z,100.00
2023-12-11T13:26:07.899Z,98.05
2023-12-11T13:41:44.788Z,86.97
2023-12-11T13:46:42.744Z,85.24
2023-12-11T13:56:46.950Z,82.28
2023-12-11T14:43:54.394Z,81.06
2023-12-11T14:59:10.250Z,81.24
2023-12-11T15:04:08.566Z,82.38
2023-12-11T15:19:24.614Z,81.89
2023-12-11T15:34:37.596Z,86.16
2023-12-11T15:49:56.672Z,99.22
2023-12-11T15:54:51.086Z,100.00
2023-12-11T16:10:02.376Z,100.00
2023-12-11T16:46:48.705Z,100.00
2023-12-11T16:51:41.386Z,100.00
2023-12-11T16:56:34.814Z,100.00
2023-12-11T17:01:30.178Z,100.00
2023-12-11T17:06:25.630Z,100.00
2023-12-11T17:11:19.521Z,100.00
2023-12-11T17:16:14.343Z,100.00
2023-12-11T17:21:21.989Z,100.00
2023-12-11T17:36:43.765Z,98.94
2023-12-11T17:52:09.592Z,92.15
2023-12-11T18:28:03.591Z,95.12
2023-12-11T18:32:58.828Z,95.49
2023-12-11T18:43:00.578Z,100.00
2023-12-11T18:47:53.549Z,100.00
2023-12-11T18:52:57.060Z,100.00
2023-12-11T18:57:53.055Z,100.00
2023-12-11T19:02:49.499Z,100.00
2023-12-11T19:12:55.054Z,100.00
2023-12-11T19:17:50.278Z,100.00
2023-12-11T19:22:47.079Z,98.21
2023-12-11T19:27:46.763Z,93.60
2023-12-11T19:32:39.864Z,92.51
2023-12-11T19:37:34.760Z,92.85
2023-12-11T19:42:27.543Z,95.25
2023-12-11T19:47:27.213Z,99.20
2023-12-11T19:52:20.061Z,99.39
2023-12-11T19:57:18.114Z,97.14
2023-12-11T20:23:08.427Z,88.84
2023-12-11T20:28:04.456Z,85.89
2023-12-11T20:32:59.446Z,83.92
2023-12-11T20:37:53.800Z,83.24
2023-12-11T20:42:48.169Z,82.41
2023-12-11T20:52:47.005Z,79.18
2023-12-11T21:33:41.693Z,76.98
2023-12-11T21:54:04.895Z,80.92
2023-12-11T21:59:02.727Z,79.29
2023-12-11T22:14:35.774Z,77.91
2023-12-11T22:25:51.251Z,76.21
2023-12-11T22:36:01.847Z,75.53
2023-12-11T22:40:55.845Z,76.14
2023-12-11T22:45:49.287Z,76.67
2023-12-11T22:50:44.447Z,76.01
2023-12-11T22:55:38.862Z,77.29
2023-12-11T23:00:37.766Z,77.12
2023-12-11T23:05:33.665Z,75.95
2023-12-11T23:10:30.618Z,76.48
2023-12-11T23:15:26.094Z,76.08
2023-12-11T23:20:18.864Z,77.16
2023-12-11T23:30:19.255Z,78.02
2023-12-11T23:35:14.258Z,78.37
2023-12-11T23:40:16.430Z,77.61
2023-12-11T23:45:15.573Z,79.20
2023-12-11T23:50:09.087Z,80.34
2023-12-11T23:55:05.503Z,80.28
